sensor_id;sensor_type;location;lat;lon;timestamp;pressure;altitude;pressure_sealevel;temperature;humidity
65329;BME280;51941;52.210;5.158;2023-11-19T00:00:43;100732.47;;;12.93;100.00
65329;BME280;51941;52.210;5.158;2023-11-19T00:03:10;100740.19;;;12.95;100.00
65329;BME280;51941;52.210;5.158;2023-11-19T00:05:38;100722.16;;;12.97;100.00
65329;BME280;51941;52.210;5.158;2023-11-19T00:08:05;100717.88;;;12.96;100.00
65329;BME280;51941;52.210;5.158;2023-11-19T00:10:32;100732.47;;;12.93;100.00
65329;BME280;51941;52.210;5.158;2023-11-19T00:12:58;100734.31;;;12.93;100.00
65329;BME280;51941;52.210;5.158;2023-11-19T00:15:25;100739.88;;;12.91;100.00
65329;BME280;51941;52.210;5.158;2023-11-19T00:17:52;100752.63;;;12.89;100.00
65329;BME280;51941;52.210;5.158;2023-11-19T00:20:19;100746.75;;;12.87;100.00
65329;BME280;51941;52.210;5.158;2023-11-19T00:22:47;100738.53;;;12.89;100.00
65329;BME280;51941;52.210;5.158;2023-11-19T00:25:18;100730.81;;;12.87;100.00
65329;BME280;51941;52.210;5.158;2023-11-19T00:27:45;100713.50;;;12.85;100.00
65329;BME280;51941;52.210;5.158;2023-11-19T00:30:12;100710.59;;;12.86;100.00
65329;BME280;51941;52.210;5.158;2023-11-19T00:32:39;100714.31;;;12.85;100.00
65329;BME280;51941;52.210;5.158;2023-11-19T00:35:06;100715.84;;;12.81;100.00
65329;BME280;51941;52.210;5.158;2023-11-19T00:37:35;100704.97;;;12.83;100.00
65329;BME280;51941;52.210;5.158;2023-11-19T00:40:02;100702.31;;;12.83;100.00
65329;BME280;51941;52.210;5.158;2023-11-19T00:42:32;100698.06;;;12.82;100.00
65329;BME280;51941;52.210;5.158;2023-11-19T00:44:58;100696.44;;;12.81;100.00
65329;BME280;51941;52.210;5.158;2023-11-19T00:47:26;100712.13;;;12.82;100.00
65329;BME280;51941;52.210;5.158;2023-11-19T00:49:53;100699.63;;;12.78;100.00
65329;BME280;51941;52.210;5.158;2023-11-19T00:52:20;100700.72;;;12.82;100.00
65329;BME280;51941;52.210;5.158;2023-11-19T00:54:47;100709.44;;;12.77;100.00
65329;BME280;51941;52.210;5.158;2023-11-19T00:57:14;100702.31;;;12.83;100.00
65329;BME280;51941;52.210;5.158;2023-11-19T00:59:42;100707.16;;;12.86;100.00
65329;BME280;51941;52.210;5.158;2023-11-19T01:02:10;100705.41;;;12.75;100.00
65329;BME280;51941;52.210;5.158;2023-11-19T01:04:37;100707.88;;;12.81;100.00
65329;BME280;51941;52.210;5.158;2023-11-19T01:07:04;100710.53;;;12.81;100.00
65329;BME280;51941;52.210;5.158;2023-11-19T01:09:31;100697.53;;;12.80;100.00
65329;BME280;51941;52.210;5.158;2023-11-19T01:11:59;100696.97;;;12.78;100.00
65329;BME280;51941;52.210;5.158;2023-11-19T01:14:26;100692.69;;;12.77;100.00
65329;BME280;51941;52.210;5.158;2023-11-19T01:16:54;100677.81;;;12.76;100.00
65329;BME280;51941;52.210;5.158;2023-11-19T01:19:22;100676.19;;;12.75;100.00
65329;BME280;51941;52.210;5.158;2023-11-19T01:21:49;100674.84;;;12.72;100.00
65329;BME280;51941;52.210;5.158;2023-11-19T01:24:16;100662.06;;;12.69;100.00
65329;BME280;51941;52.210;5.158;2023-11-19T01:26:43;100660.16;;;12.65;100.00
65329;BME280;51941;52.210;5.158;2023-11-19T01:29:10;100671.09;;;12.68;100.00
65329;BME280;51941;52.210;5.158;2023-11-19T01:31:39;100667.31;;;12.64;100.00
65329;BME280;51941;52.210;5.158;2023-11-19T01:34:08;100689.34;;;12.65;100.00
65329;BME280;51941;52.210;5.158;2023-11-19T01:36:35;100677.06;;;12.59;100.00
65329;BME280;51941;52.210;5.158;2023-11-19T01:39:02;100684.00;;;12.60;100.00
65329;BME280;51941;52.210;5.158;2023-11-19T01:41:29;100679.97;;;12.57;100.00
65329;BME280;51941;52.210;5.158;2023-11-19T01:44:00;100684.72;;;12.55;100.00
65329;BME280;51941;52.210;5.158;2023-11-19T01:46:27;100681.78;;;12.51;100.00
65329;BME280;51941;52.210;5.158;2023-11-19T01:48:54;100689.97;;;12.50;100.00
65329;BME280;51941;52.210;5.158;2023-11-19T01:51:23;100678.50;;;12.44;100.00
65329;BME280;51941;52.210;5.158;2023-11-19T01:53:50;100689.13;;;12.44;100.00
65329;BME280;51941;52.210;5.158;2023-11-19T01:56:17;100689.59;;;12.41;100.00
65329;BME280;51941;52.210;5.158;2023-11-19T01:58:45;100681.81;;;12.35;100.00
65329;BME280;51941;52.210;5.158;2023-11-19T02:01:13;100688.44;;;12.32;100.00
65329;BME280;51941;52.210;5.158;2023-11-19T02:03:40;100692.59;;;12.28;100.00
65329;BME280;51941;52.210;5.158;2023-11-19T02:06:07;100682.97;;;12.22;100.00
65329;BME280;51941;52.210;5.158;2023-11-19T02:08:36;100677.38;;;12.18;100.00
65329;BME280;51941;52.210;5.158;2023-11-19T02:11:04;100670.69;;;12.16;100.00
65329;BME280;51941;52.210;5.158;2023-11-19T02:13:32;100677.50;;;12.12;100.00
65329;BME280;51941;52.210;5.158;2023-11-19T02:15:59;100676.63;;;12.06;100.00
65329;BME280;51941;52.210;5.158;2023-11-19T02:18:28;100678.97;;;12.03;100.00
65329;BME280;51941;52.210;5.158;2023-11-19T02:20:55;100689.75;;;11.96;100.00
65329;BME280;51941;52.210;5.158;2023-11-19T02:23:22;100686.69;;;11.88;100.00
65329;BME280;51941;52.210;5.158;2023-11-19T02:26:00;100680.28;;;11.84;100.00
65329;BME280;51941;52.210;5.158;2023-11-19T02:28:29;100693.03;;;11.87;100.00
65329;BME280;51941;52.210;5.158;2023-11-19T02:30:56;100697.78;;;11.85;100.00
65329;BME280;51941;52.210;5.158;2023-11-19T02:33:23;100711.78;;;11.80;100.00
65329;BME280;51941;52.210;5.158;2023-11-19T02:35:50;100694.03;;;11.80;100.00
65329;BME280;51941;52.210;5.158;2023-11-19T02:38:17;100691.38;;;11.80;100.00
65329;BME280;51941;52.210;5.158;2023-11-19T02:40:44;100680.66;;;11.75;100.00
65329;BME280;51941;52.210;5.158;2023-11-19T02:43:10;100670.56;;;11.72;100.00
65329;BME280;51941;52.210;5.158;2023-11-19T02:45:40;100675.69;;;11.62;100.00
65329;BME280;51941;52.210;5.158;2023-11-19T02:48:07;100675.69;;;11.62;100.00
65329;BME280;51941;52.210;5.158;2023-11-19T02:50:35;100680.19;;;11.62;100.00
65329;BME280;51941;52.210;5.158;2023-11-19T02:53:02;100688.16;;;11.62;100.00
65329;BME280;51941;52.210;5.158;2023-11-19T02:55:28;100685.97;;;11.59;100.00
65329;BME280;51941;52.210;5.158;2023-11-19T02:58:01;100692.81;;;11.55;100.00
65329;BME280;51941;52.210;5.158;2023-11-19T03:00:34;100687.75;;;11.53;100.00
65329;BME280;51941;52.210;5.158;2023-11-19T03:03:04;100687.41;;;11.50;100.00
65329;BME280;51941;52.210;5.158;2023-11-19T03:05:43;100679.72;;;11.48;100.00
65329;BME280;51941;52.210;5.158;2023-11-19T03:08:10;100674.88;;;11.45;100.00
65329;BME280;51941;52.210;5.158;2023-11-19T03:10:37;100683.81;;;11.39;100.00
65329;BME280;51941;52.210;5.158;2023-11-19T03:13:04;100695.75;;;11.41;100.00
65329;BME280;51941;52.210;5.158;2023-11-19T03:15:31;100699.94;;;11.37;100.00
65329;BME280;51941;52.210;5.158;2023-11-19T03:17:57;100687.41;;;11.33;100.00
65329;BME280;51941;52.210;5.158;2023-11-19T03:20:25;100690.84;;;11.33;100.00
65329;BME280;51941;52.210;5.158;2023-11-19T03:22:54;100690.53;;;11.30;100.00
65329;BME280;51941;52.210;5.158;2023-11-19T03:25:24;100687.09;;;11.29;100.00
65329;BME280;51941;52.210;5.158;2023-11-19T03:27:52;100675.09;;;11.27;100.00
65329;BME280;51941;52.210;5.158;2023-11-19T03:30:19;100673.72;;;11.24;100.00
65329;BME280;51941;52.210;5.158;2023-11-19T03:32:46;100671.31;;;11.23;100.00
65329;BME280;51941;52.210;5.158;2023-11-19T03:35:13;100663.88;;;11.20;100.00
65329;BME280;51941;52.210;5.158;2023-11-19T03:37:41;100658.72;;;11.13;100.00
65329;BME280;51941;52.210;5.158;2023-11-19T03:40:08;100662.19;;;11.14;100.00
65329;BME280;51941;52.210;5.158;2023-11-19T03:42:35;100648.81;;;11.09;100.00
65329;BME280;51941;52.210;5.158;2023-11-19T03:45:03;100657.81;;;11.07;100.00
65329;BME280;51941;52.210;5.158;2023-11-19T03:47:30;100663.03;;;11.02;100.00
65329;BME280;51941;52.210;5.158;2023-11-19T03:49:56;100661.06;;;10.98;100.00
65329;BME280;51941;52.210;5.158;2023-11-19T03:52:24;100678.59;;;10.99;100.00
65329;BME280;51941;52.210;5.158;2023-11-19T03:54:53;100684.69;;;10.99;100.00
65329;BME280;51941;52.210;5.158;2023-11-19T03:57:21;100677.31;;;11.01;100.00
65329;BME280;51941;52.210;5.158;2023-11-19T03:59:47;100689.75;;;11.01;100.00
65329;BME280;51941;52.210;5.158;2023-11-19T04:02:15;100687.91;;;11.01;100.00
65329;BME280;51941;52.210;5.158;2023-11-19T04:04:42;100696.88;;;11.00;100.00
65329;BME280;51941;52.210;5.158;2023-11-19T04:07:08;100685.81;;;11.03;100.00
65329;BME280;51941;52.210;5.158;2023-11-19T04:09:35;100695.63;;;11.03;100.00
65329;BME280;51941;52.210;5.158;2023-11-19T04:12:05;100689.97;;;10.99;100.00
65329;BME280;51941;52.210;5.158;2023-11-19T04:14:32;100694.25;;;11.00;100.00
65329;BME280;51941;52.210;5.158;2023-11-19T04:16:58;100686.75;;;10.97;100.00
65329;BME280;51941;52.210;5.158;2023-11-19T04:19:25;100702.19;;;11.00;100.00
65329;BME280;51941;52.210;5.158;2023-11-19T04:21:52;100705.28;;;10.97;100.00
65329;BME280;51941;52.210;5.158;2023-11-19T04:24:18;100701.28;;;10.95;100.00
65329;BME280;51941;52.210;5.158;2023-11-19T04:26:45;100690.44;;;10.96;100.00
65329;BME280;51941;52.210;5.158;2023-11-19T04:29:15;100689.91;;;10.94;100.00
65329;BME280;51941;52.210;5.158;2023-11-19T04:31:42;100692.31;;;10.96;100.00
65329;BME280;51941;52.210;5.158;2023-11-19T04:34:09;100691.50;;;10.95;100.00
65329;BME280;51941;52.210;5.158;2023-11-19T04:36:36;100698.88;;;10.93;100.00
65329;BME280;51941;52.210;5.158;2023-11-19T04:39:04;100694.28;;;10.89;100.00
65329;BME280;51941;52.210;5.158;2023-11-19T04:41:34;100703.75;;;10.85;100.00
65329;BME280;51941;52.210;5.158;2023-11-19T04:44:01;100696.03;;;10.83;100.00
65329;BME280;51941;52.210;5.158;2023-11-19T04:46:29;100689.94;;;10.83;100.00
65329;BME280;51941;52.210;5.158;2023-11-19T04:48:56;100692.56;;;10.83;100.00
65329;BME280;51941;52.210;5.158;2023-11-19T04:51:22;100685.09;;;10.80;100.00
65329;BME280;51941;52.210;5.158;2023-11-19T04:53:49;100685.59;;;10.77;100.00
65329;BME280;51941;52.210;5.158;2023-11-19T04:56:16;100693.38;;;10.83;100.00
65329;BME280;51941;52.210;5.158;2023-11-19T04:58:45;100696.91;;;10.89;100.00
65329;BME280;51941;52.210;5.158;2023-11-19T05:01:13;100681.53;;;10.86;100.00
65329;BME280;51941;52.210;5.158;2023-11-19T05:03:43;100696.00;;;10.95;100.00
65329;BME280;51941;52.210;5.158;2023-11-19T05:06:10;100696.88;;;11.00;100.00
65329;BME280;51941;52.210;5.158;2023-11-19T05:08:37;100691.59;;;11.00;100.00
65329;BME280;51941;52.210;5.158;2023-11-19T05:11:04;100701.94;;;11.02;100.00
65329;BME280;51941;52.210;5.158;2023-11-19T05:13:31;100695.84;;;11.01;100.00
65329;BME280;51941;52.210;5.158;2023-11-19T05:15:58;100699.75;;;10.99;100.00
65329;BME280;51941;52.210;5.158;2023-11-19T05:18:24;100692.53;;;10.94;100.00
65329;BME280;51941;52.210;5.158;2023-11-19T05:20:52;100700.50;;;10.94;100.00
65329;BME280;51941;52.210;5.158;2023-11-19T05:23:19;100692.44;;;10.89;100.00
65329;BME280;51941;52.210;5.158;2023-11-19T05:25:45;100695.06;;;10.89;100.00
65329;BME280;51941;52.210;5.158;2023-11-19T05:28:14;100685.66;;;10.82;100.00
65329;BME280;51941;52.210;5.158;2023-11-19T05:30:40;100701.25;;;10.78;100.00
65329;BME280;51941;52.210;5.158;2023-11-19T05:33:07;100703.31;;;10.76;100.00
65329;BME280;51941;52.210;5.158;2023-11-19T05:35:34;100696.25;;;10.70;100.00
65329;BME280;51941;52.210;5.158;2023-11-19T05:38:02;100702.03;;;10.67;100.00
65329;BME280;51941;52.210;5.158;2023-11-19T05:40:29;100704.09;;;10.65;100.00
65329;BME280;51941;52.210;5.158;2023-11-19T05:42:56;100713.09;;;10.64;100.00
65329;BME280;51941;52.210;5.158;2023-11-19T05:45:22;100702.94;;;10.61;100.00
65329;BME280;51941;52.210;5.158;2023-11-19T05:47:49;100712.75;;;10.60;100.00
65329;BME280;51941;52.210;5.158;2023-11-19T05:50:17;100711.94;;;10.60;100.00
65329;BME280;51941;52.210;5.158;2023-11-19T05:52:43;100714.34;;;10.61;100.00
65329;BME280;51941;52.210;5.158;2023-11-19T05:55:12;100707.47;;;10.60;100.00
65329;BME280;51941;52.210;5.158;2023-11-19T05:57:39;100705.94;;;10.64;100.00
65329;BME280;51941;52.210;5.158;2023-11-19T06:00:07;100701.47;;;10.65;100.00
65329;BME280;51941;52.210;5.158;2023-11-19T06:02:39;100697.19;;;10.64;100.00
65329;BME280;51941;52.210;5.158;2023-11-19T06:05:06;100694.56;;;10.64;100.00
65329;BME280;51941;52.210;5.158;2023-11-19T06:07:35;100693.44;;;10.60;100.00
65329;BME280;51941;52.210;5.158;2023-11-19T06:10:05;100704.00;;;10.60;100.00
65329;BME280;51941;52.210;5.158;2023-11-19T06:12:34;100706.66;;;10.60;100.00
65329;BME280;51941;52.210;5.158;2023-11-19T06:15:04;100707.56;;;10.54;100.00
65329;BME280;51941;52.210;5.158;2023-11-19T06:17:31;100696.75;;;10.55;100.00
65329;BME280;51941;52.210;5.158;2023-11-19T06:19:58;100695.63;;;10.51;100.00
65329;BME280;51941;52.210;5.158;2023-11-19T06:22:25;100704.59;;;10.50;100.00
65329;BME280;51941;52.210;5.158;2023-11-19T06:24:51;100700.34;;;10.49;100.00
65329;BME280;51941;52.210;5.158;2023-11-19T06:27:18;100704.47;;;10.45;100.00
65329;BME280;51941;52.210;5.158;2023-11-19T06:29:46;100710.59;;;10.46;100.00
65329;BME280;51941;52.210;5.158;2023-11-19T06:32:13;100712.91;;;10.42;100.00
65329;BME280;51941;52.210;5.158;2023-11-19T06:34:39;100712.66;;;10.44;100.00
65329;BME280;51941;52.210;5.158;2023-11-19T06:37:07;100695.06;;;10.38;100.00
65329;BME280;51941;52.210;5.158;2023-11-19T06:39:34;100709.53;;;10.47;100.00
65329;BME280;51941;52.210;5.158;2023-11-19T06:42:01;100701.38;;;10.48;100.00
65329;BME280;51941;52.210;5.158;2023-11-19T06:44:28;100702.63;;;10.46;100.00
65329;BME280;51941;52.210;5.158;2023-11-19T06:46:56;100708.28;;;10.49;100.00
65329;BME280;51941;52.210;5.158;2023-11-19T06:49:22;100710.34;;;10.47;100.00
65329;BME280;51941;52.210;5.158;2023-11-19T06:51:50;100716.69;;;10.46;100.00
65329;BME280;51941;52.210;5.158;2023-11-19T06:54:16;100710.69;;;10.51;100.00
65329;BME280;51941;52.210;5.158;2023-11-19T06:56:43;100718.06;;;10.60;100.00
65329;BME280;51941;52.210;5.158;2023-11-19T06:59:10;100722.06;;;10.63;100.00
65329;BME280;51941;52.210;5.158;2023-11-19T07:01:36;100721.03;;;10.64;100.00
65329;BME280;51941;52.210;5.158;2023-11-19T07:04:05;100719.41;;;10.63;100.00
65329;BME280;51941;52.210;5.158;2023-11-19T07:06:34;100726.91;;;10.66;100.00
65329;BME280;51941;52.210;5.158;2023-11-19T07:09:02;100727.94;;;10.65;100.00
65329;BME280;51941;52.210;5.158;2023-11-19T07:11:35;100718.59;;;10.62;100.00
65329;BME280;51941;52.210;5.158;2023-11-19T07:14:02;100730.00;;;10.75;100.00
65329;BME280;51941;52.210;5.158;2023-11-19T07:16:29;100740.94;;;10.78;100.00
65329;BME280;51941;52.210;5.158;2023-11-19T07:18:56;100726.66;;;10.79;100.00
65329;BME280;51941;52.210;5.158;2023-11-19T07:21:25;100742.31;;;10.81;100.00
65329;BME280;51941;52.210;5.158;2023-11-19T07:23:53;100745.88;;;10.86;100.00
65329;BME280;51941;52.210;5.158;2023-11-19T07:26:20;100746.19;;;10.90;100.00
65329;BME280;51941;52.210;5.158;2023-11-19T07:28:47;100750.91;;;10.88;100.00
65329;BME280;51941;52.210;5.158;2023-11-19T07:31:14;100739.63;;;10.92;100.00
65329;BME280;51941;52.210;5.158;2023-11-19T07:33:41;100746.06;;;10.96;100.00
65329;BME280;51941;52.210;5.158;2023-11-19T07:36:08;100752.75;;;10.99;100.00
65329;BME280;51941;52.210;5.158;2023-11-19T07:38:36;100749.94;;;11.05;100.00
65329;BME280;51941;52.210;5.158;2023-11-19T07:41:04;100756.63;;;11.08;100.00
65329;BME280;51941;52.210;5.158;2023-11-19T07:43:32;100753.75;;;11.10;100.00
65329;BME280;51941;52.210;5.158;2023-11-19T07:45:59;100752.25;;;11.14;100.00
65329;BME280;51941;52.210;5.158;2023-11-19T07:48:27;100760.97;;;11.14;100.00
65329;BME280;51941;52.210;5.158;2023-11-19T07:50:54;100763.00;;;11.24;100.00
65329;BME280;51941;52.210;5.158;2023-11-19T07:53:20;100761.41;;;11.23;100.00
65329;BME280;51941;52.210;5.158;2023-11-19T07:55:49;100751.28;;;11.20;100.00
65329;BME280;51941;52.210;5.158;2023-11-19T07:58:15;100751.06;;;11.21;100.00
65329;BME280;51941;52.210;5.158;2023-11-19T08:00:42;100741.59;;;11.25;100.00
65329;BME280;51941;52.210;5.158;2023-11-19T08:03:08;100746.06;;;11.25;100.00
65329;BME280;51941;52.210;5.158;2023-11-19T08:05:35;100741.59;;;11.25;100.00
65329;BME280;51941;52.210;5.158;2023-11-19T08:08:02;100744.47;;;11.24;100.00
65329;BME280;51941;52.210;5.158;2023-11-19T08:10:29;100748.97;;;11.23;100.00
65329;BME280;51941;52.210;5.158;2023-11-19T08:12:57;100747.38;;;11.22;100.00
65329;BME280;51941;52.210;5.158;2023-11-19T08:15:24;100738.34;;;11.23;100.00
65329;BME280;51941;52.210;5.158;2023-11-19T08:17:50;100738.63;;;11.22;100.00
65329;BME280;51941;52.210;5.158;2023-11-19T08:20:17;100735.41;;;11.20;100.00
65329;BME280;51941;52.210;5.158;2023-11-19T08:22:44;100743.56;;;11.18;100.00
65329;BME280;51941;52.210;5.158;2023-11-19T08:25:10;100752.34;;;11.19;100.00
65329;BME280;51941;52.210;5.158;2023-11-19T08:27:37;100751.88;;;11.22;100.00
65329;BME280;51941;52.210;5.158;2023-11-19T08:30:06;100754.03;;;11.25;100.00
65329;BME280;51941;52.210;5.158;2023-11-19T08:32:34;100750.09;;;11.27;100.00
65329;BME280;51941;52.210;5.158;2023-11-19T08:35:02;100763.94;;;11.29;100.00
65329;BME280;51941;52.210;5.158;2023-11-19T08:37:28;100760.91;;;11.37;100.00
65329;BME280;51941;52.210;5.158;2023-11-19T08:39:55;100764.44;;;11.43;100.00
65329;BME280;51941;52.210;5.158;2023-11-19T08:42:22;100763.75;;;11.48;100.00
65329;BME280;51941;52.210;5.158;2023-11-19T08:44:49;100774.66;;;11.51;100.00
65329;BME280;51941;52.210;5.158;2023-11-19T08:47:20;100772.00;;;11.51;100.00
65329;BME280;51941;52.210;5.158;2023-11-19T08:49:48;100765.19;;;11.55;100.00
65329;BME280;51941;52.210;5.158;2023-11-19T08:52:14;100775.31;;;11.58;100.00
65329;BME280;51941;52.210;5.158;2023-11-19T08:54:43;100775.97;;;11.65;100.00
65329;BME280;51941;52.210;5.158;2023-11-19T08:57:09;100775.25;;;11.70;100.00
65329;BME280;51941;52.210;5.158;2023-11-19T08:59:36;100779.03;;;11.74;100.00
65329;BME280;51941;52.210;5.158;2023-11-19T09:02:04;100770.81;;;11.75;100.00
65329;BME280;51941;52.210;5.158;2023-11-19T09:04:32;100771.16;;;11.79;100.00
65329;BME280;51941;52.210;5.158;2023-11-19T09:06:58;100776.00;;;11.82;100.00
65329;BME280;51941;52.210;5.158;2023-11-19T09:09:25;100775.19;;;11.81;100.00
65329;BME280;51941;52.210;5.158;2023-11-19T09:11:52;100770.13;;;11.80;100.00
65329;BME280;51941;52.210;5.158;2023-11-19T09:14:19;100765.63;;;11.80;100.00
65329;BME280;51941;52.210;5.158;2023-11-19T09:16:49;100760.38;;;11.86;100.00
65329;BME280;51941;52.210;5.158;2023-11-19T09:19:16;100762.34;;;11.90;100.00
65329;BME280;51941;52.210;5.158;2023-11-19T09:21:44;100756.88;;;11.97;100.00
65329;BME280;51941;52.210;5.158;2023-11-19T09:24:11;100767.00;;;12.00;100.00
65329;BME280;51941;52.210;5.158;2023-11-19T09:26:37;100753.56;;;12.06;100.00
65329;BME280;51941;52.210;5.158;2023-11-19T09:29:06;100767.16;;;12.10;100.00
65329;BME280;51941;52.210;5.158;2023-11-19T09:31:34;100770.34;;;12.12;100.00
65329;BME280;51941;52.210;5.158;2023-11-19T09:34:00;100768.88;;;12.16;100.00
65329;BME280;51941;52.210;5.158;2023-11-19T09:36:27;100757.22;;;12.17;100.00
65329;BME280;51941;52.210;5.158;2023-11-19T09:38:55;100772.16;;;12.23;100.00
65329;BME280;51941;52.210;5.158;2023-11-19T09:41:23;100759.69;;;12.24;100.00
65329;BME280;51941;52.210;5.158;2023-11-19T09:43:51;100758.72;;;12.30;100.00
65329;BME280;51941;52.210;5.158;2023-11-19T09:46:17;100758.47;;;12.31;100.00
65329;BME280;51941;52.210;5.158;2023-11-19T09:48:45;100753.25;;;12.36;100.00
65329;BME280;51941;52.210;5.158;2023-11-19T09:51:13;100764.03;;;12.30;100.00
65329;BME280;51941;52.210;5.158;2023-11-19T09:53:40;100758.63;;;12.41;100.00
65329;BME280;51941;52.210;5.158;2023-11-19T09:56:08;100759.44;;;12.42;100.00
65329;BME280;51941;52.210;5.158;2023-11-19T09:58:35;100757.34;;;12.44;100.00
65329;BME280;51941;52.210;5.158;2023-11-19T10:01:02;100751.69;;;12.40;100.00
65329;BME280;51941;52.210;5.158;2023-11-19T10:03:33;100761.84;;;12.43;100.00
65329;BME280;51941;52.210;5.158;2023-11-19T10:06:04;100759.50;;;12.47;100.00
65329;BME280;51941;52.210;5.158;2023-11-19T10:08:32;100754.25;;;12.52;100.00
65329;BME280;51941;52.210;5.158;2023-11-19T10:10:59;100746.31;;;12.52;100.00
65329;BME280;51941;52.210;5.158;2023-11-19T10:13:27;100751.09;;;12.55;100.00
65329;BME280;51941;52.210;5.158;2023-11-19T10:15:56;100746.31;;;12.52;100.00
65329;BME280;51941;52.210;5.158;2023-11-19T10:18:24;100740.75;;;12.53;100.00
65329;BME280;51941;52.210;5.158;2023-11-19T10:20:52;100742.91;;;12.56;100.00
65329;BME280;51941;52.210;5.158;2023-11-19T10:23:18;100744.25;;;12.59;100.00
65329;BME280;51941;52.210;5.158;2023-11-19T10:25:45;100738.47;;;12.62;100.00
65329;BME280;51941;52.210;5.158;2023-11-19T10:28:14;100746.50;;;12.67;100.00
65329;BME280;51941;52.210;5.158;2023-11-19T10:30:43;100736.47;;;12.74;100.00
65329;BME280;51941;52.210;5.158;2023-11-19T10:33:11;100733.91;;;12.79;100.00
65329;BME280;51941;52.210;5.158;2023-11-19T10:35:51;100744.34;;;12.86;100.00
65329;BME280;51941;52.210;5.158;2023-11-19T10:38:19;100742.59;;;12.97;100.00
65329;BME280;51941;52.210;5.158;2023-11-19T10:40:47;100742.78;;;12.90;100.00
65329;BME280;51941;52.210;5.158;2023-11-19T10:43:14;100749.97;;;12.89;100.00
65329;BME280;51941;52.210;5.158;2023-11-19T10:45:43;100750.69;;;12.85;100.00
65329;BME280;51941;52.210;5.158;2023-11-19T10:48:09;100743.41;;;12.75;100.00
65329;BME280;51941;52.210;5.158;2023-11-19T10:50:37;100735.69;;;12.74;100.00
65329;BME280;51941;52.210;5.158;2023-11-19T10:53:05;100735.44;;;12.75;100.00
65329;BME280;51941;52.210;5.158;2023-11-19T10:55:35;100743.22;;;12.82;100.00
65329;BME280;51941;52.210;5.158;2023-11-19T10:58:05;100746.44;;;12.84;100.00
65329;BME280;51941;52.210;5.158;2023-11-19T11:00:38;100748.59;;;12.87;100.00
65329;BME280;51941;52.210;5.158;2023-11-19T11:03:10;100734.31;;;12.93;100.00
65329;BME280;51941;52.210;5.158;2023-11-19T11:05:37;100736.72;;;12.94;100.00
65329;BME280;51941;52.210;5.158;2023-11-19T11:08:06;100735.53;;;13.07;100.00
65329;BME280;51941;52.210;5.158;2023-11-19T11:10:40;100741.75;;;13.18;100.00
65329;BME280;51941;52.210;5.158;2023-11-19T11:13:09;100732.25;;;13.22;100.00
65329;BME280;51941;52.210;5.158;2023-11-19T11:15:37;100734.47;;;13.30;100.00
65329;BME280;51941;52.210;5.158;2023-11-19T11:18:08;100733.66;;;13.29;100.00
65329;BME280;51941;52.210;5.158;2023-11-19T11:20:35;100728.38;;;13.35;100.00
65329;BME280;51941;52.210;5.158;2023-11-19T11:23:17;100733.69;;;13.35;100.00
65329;BME280;51941;52.210;5.158;2023-11-19T11:25:58;100721.75;;;13.37;100.00
65329;BME280;51941;52.210;5.158;2023-11-19T11:28:34;100733.03;;;13.44;100.00
65329;BME280;51941;52.210;5.158;2023-11-19T11:31:12;100732.75;;;13.41;100.00
65329;BME280;51941;52.210;5.158;2023-11-19T11:33:59;100717.88;;;13.45;100.00
65329;BME280;51941;52.210;5.158;2023-11-19T11:36:31;100722.34;;;13.39;100.00
65329;BME280;51941;52.210;5.158;2023-11-19T11:39:03;100714.13;;;13.41;100.00
65329;BME280;51941;52.210;5.158;2023-11-19T11:41:33;100726.41;;;13.47;100.00
65329;BME280;51941;52.210;5.158;2023-11-19T11:43:59;100710.13;;;13.43;100.00
65329;BME280;51941;52.210;5.158;2023-11-19T11:46:54;100715.72;;;13.42;100.00
65329;BME280;51941;52.210;5.158;2023-11-19T11:49:28;100717.59;;;13.41;100.00
65329;BME280;51941;52.210;5.158;2023-11-19T11:52:00;100724.66;;;13.36;100.00
65329;BME280;51941;52.210;5.158;2023-11-19T11:54:29;100705.09;;;13.42;100.00
65329;BME280;51941;52.210;5.158;2023-11-19T11:57:09;100716.31;;;13.49;100.00
65329;BME280;51941;52.210;5.158;2023-11-19T11:59:37;100706.75;;;13.48;100.00
65329;BME280;51941;52.210;5.158;2023-11-19T12:02:04;100712.34;;;13.51;100.00
65329;BME280;51941;52.210;5.158;2023-11-19T12:04:35;100710.75;;;13.50;100.00
65329;BME280;51941;52.210;5.158;2023-11-19T12:07:04;100711.56;;;13.51;100.00
65329;BME280;51941;52.210;5.158;2023-11-19T12:09:31;100706.28;;;13.56;100.00
65329;BME280;51941;52.210;5.158;2023-11-19T12:12:07;100698.84;;;13.58;100.00
65329;BME280;51941;52.210;5.158;2023-11-19T12:15:00;100699.09;;;13.56;100.00
65329;BME280;51941;52.210;5.158;2023-11-19T12:17:41;100703.63;;;13.56;100.00
65329;BME280;51941;52.210;5.158;2023-11-19T12:20:11;100703.38;;;13.57;100.00
65329;BME280;51941;52.210;5.158;2023-11-19T12:22:38;100707.88;;;13.57;100.00
65329;BME280;51941;52.210;5.158;2023-11-19T12:25:06;100710.00;;;13.55;100.00
65329;BME280;51941;52.210;5.158;2023-11-19T12:27:32;100708.38;;;13.54;100.00
65329;BME280;51941;52.210;5.158;2023-11-19T12:29:59;100709.69;;;13.51;100.00
65329;BME280;51941;52.210;5.158;2023-11-19T12:32:26;100707.31;;;13.55;100.00
65329;BME280;51941;52.210;5.158;2023-11-19T12:34:53;100707.56;;;13.53;100.00
65329;BME280;51941;52.210;5.158;2023-11-19T12:37:22;100714.47;;;13.49;100.00
65329;BME280;51941;52.210;5.158;2023-11-19T12:39:49;100708.84;;;13.46;100.00
65329;BME280;51941;52.210;5.158;2023-11-19T12:42:16;100709.34;;;13.43;100.00
65329;BME280;51941;52.210;5.158;2023-11-19T12:44:54;100709.84;;;13.40;100.00